KRAP/RAP METAR and TAF weather

Enter ICAO airport designator
Station Type Date Time Source
KRAP METAR 2023/01/30 10:52 UTC NOAA

KRAP 301052Z AUTO 31008KT 10SM CLR M27/M30 A3024 RMK AO2 SLP339 T12721300 $


Station Type Date Time Source
KRAP Decoded METAR 2023/01/30 10:52 UTC NOAA

RAPID CITY REGIONAL AIRPORT , SD, United States (KRAP) 44-03N 103-03W 965M
Jan 30, 2023 - 05:52 AM EST / 2023.01.30 1052 UTC
Wind: from the NW (310 degrees) at 9 MPH (8 KT):0
Visibility: 10 mile(s):0
Sky conditions: clear
Temperature: -17.0 F (-27.2 C)
Windchill: -36 F (-38 C):2
Dew Point: -22.0 F (-30.0 C)
Relative Humidity: 77%
Pressure (altimeter): 30.24 in. Hg (1024 hPa)
ob: KRAP 301052Z AUTO 31008KT 10SM CLR M27/M30 A3024 RMK AO2 SLP339 T12721300
cycle: 11

Station Type Date Time Source
KRAP TAF 2023/01/30 12:22 UTC NOAA

TAF KRAP 301120Z 3012/3112 19005KT P6SM FEW250
FM310000 31007KT P6SM FEW250

Example: see airport list